KPTB/PTB METAR and TAF weather

Enter ICAO airport designator
Station Type Date Time Source
KPTB METAR 2020/02/20 16:35 UTC NOAA

KPTB 201635Z AUTO 04006KT 10SM BKN070 OVC090 05/M04 A3045 RMK AO2 T00451044


Station Type Date Time Source
KPTB Decoded METAR 2020/02/20 16:35 UTC NOAA

Petersburg, Dinwiddie County Airport, VA, United States (KPTB) 37-11N 077-31W
Feb 20, 2020 - 11:35 AM EST / 2020.02.20 1635 UTC
Wind: from the NE (040 degrees) at 7 MPH (6 KT):0
Visibility: 10 mile(s):0
Sky conditions: overcast
Temperature: 40.1 F (4.5 C)
Dew Point: 24.1 F (-4.4 C)
Relative Humidity: 52%
Pressure (altimeter): 30.45 in. Hg (1031 hPa)
ob: KPTB 201635Z AUTO 04006KT 10SM BKN070 OVC090 05/M04 A3045 RMK AO2 T00451044
cycle: 16

Station Type Date Time Source
KPTB TAF UTC NOAA

Error!

Example: see airport list